sensor_id;sensor_type;location;lat;lon;timestamp;pressure;altitude;pressure_sealevel;temperature;humidity
65175;BME280;51761;42.126;24.752;2022-07-06T00:01:23;99487.50;;;24.17;50.94
65175;BME280;51761;42.126;24.752;2022-07-06T00:03:48;99507.47;;;24.27;51.11
65175;BME280;51761;42.126;24.752;2022-07-06T00:06:14;99486.72;;;24.22;52.17
65175;BME280;51761;42.126;24.752;2022-07-06T00:08:42;99506.69;;;24.32;52.32
65175;BME280;51761;42.126;24.752;2022-07-06T00:11:07;99502.28;;;24.31;53.00
65175;BME280;51761;42.126;24.752;2022-07-06T00:13:33;99488.25;;;24.17;53.52
65175;BME280;51761;42.126;24.752;2022-07-06T00:15:58;99474.00;;;24.01;53.86
65175;BME280;51761;42.126;24.752;2022-07-06T00:18:24;99483.06;;;24.05;54.29
65175;BME280;51761;42.126;24.752;2022-07-06T00:20:50;99497.88;;;24.03;54.88
65175;BME280;51761;42.126;24.752;2022-07-06T00:23:15;99489.81;;;24.02;55.07
65175;BME280;51761;42.126;24.752;2022-07-06T00:25:41;99486.97;;;23.91;55.33
65175;BME280;51761;42.126;24.752;2022-07-06T00:28:06;99483.78;;;23.78;56.00
65175;BME280;51761;42.126;24.752;2022-07-06T00:30:32;99478.09;;;23.72;56.25
65175;BME280;51761;42.126;24.752;2022-07-06T00:32:57;99466.66;;;23.67;56.31
65175;BME280;51761;42.126;24.752;2022-07-06T00:35:24;99472.63;;;23.58;56.90
65175;BME280;51761;42.126;24.752;2022-07-06T00:37:50;99468.41;;;23.48;56.62
65175;BME280;51761;42.126;24.752;2022-07-06T00:40:16;99474.16;;;23.64;56.05
65175;BME280;51761;42.126;24.752;2022-07-06T00:42:43;99455.50;;;23.69;55.93
65175;BME280;51761;42.126;24.752;2022-07-06T00:45:10;99431.88;;;23.52;56.18
65175;BME280;51761;42.126;24.752;2022-07-06T00:47:36;99444.38;;;23.76;55.88
65175;BME280;51761;42.126;24.752;2022-07-06T00:50:03;99450.09;;;23.76;55.81
65175;BME280;51761;42.126;24.752;2022-07-06T00:53:22;99427.78;;;23.69;55.92
65175;BME280;51761;42.126;24.752;2022-07-06T00:55:41;99416.13;;;23.62;55.59
65175;BME280;51761;42.126;24.752;2022-07-06T00:58:08;99451.94;;;23.85;55.98
65175;BME280;51761;42.126;24.752;2022-07-06T01:00:35;99400.28;;;23.50;56.13
65175;BME280;51761;42.126;24.752;2022-07-06T01:03:01;99428.28;;;23.79;56.22
65175;BME280;51761;42.126;24.752;2022-07-06T01:05:27;99426.53;;;23.81;55.32
65175;BME280;51761;42.126;24.752;2022-07-06T01:07:53;99387.88;;;23.80;54.91
65175;BME280;51761;42.126;24.752;2022-07-06T01:10:20;99385.31;;;23.82;54.73
65175;BME280;51761;42.126;24.752;2022-07-06T01:12:47;99401.88;;;24.06;54.54
65175;BME280;51761;42.126;24.752;2022-07-06T01:15:20;99323.84;;;23.54;55.07
65175;BME280;51761;42.126;24.752;2022-07-06T01:17:46;99387.13;;;23.85;54.85
65175;BME280;51761;42.126;24.752;2022-07-06T01:20:23;99387.63;;;23.89;54.75
65175;BME280;51761;42.126;24.752;2022-07-06T01:22:50;99376.50;;;23.86;55.12
65175;BME280;51761;42.126;24.752;2022-07-06T01:25:16;99384.53;;;23.87;55.16
65175;BME280;51761;42.126;24.752;2022-07-06T01:27:43;99351.81;;;23.72;55.07
65175;BME280;51761;42.126;24.752;2022-07-06T01:30:13;99370.50;;;23.95;54.48
65175;BME280;51761;42.126;24.752;2022-07-06T01:32:40;99362.75;;;23.90;54.76
65175;BME280;51761;42.126;24.752;2022-07-06T01:35:07;99363.00;;;23.97;54.58
65175;BME280;51761;42.126;24.752;2022-07-06T01:37:33;99355.72;;;23.96;54.04
65175;BME280;51761;42.126;24.752;2022-07-06T01:40:00;99350.00;;;23.96;54.25
65175;BME280;51761;42.126;24.752;2022-07-06T01:42:26;99331.13;;;23.82;54.23
65175;BME280;51761;42.126;24.752;2022-07-06T01:44:52;99355.72;;;24.07;54.99
65175;BME280;51761;42.126;24.752;2022-07-06T01:47:18;99342.75;;;24.12;54.53
65175;BME280;51761;42.126;24.752;2022-07-06T01:49:44;99347.38;;;24.25;53.96
65175;BME280;51761;42.126;24.752;2022-07-06T01:52:09;99323.53;;;24.18;54.07
65175;BME280;51761;42.126;24.752;2022-07-06T01:54:35;99344.03;;;24.16;53.97
65175;BME280;51761;42.126;24.752;2022-07-06T01:57:00;99334.19;;;24.01;54.18
65175;BME280;51761;42.126;24.752;2022-07-06T01:59:26;99308.78;;;23.81;54.65
65175;BME280;51761;42.126;24.752;2022-07-06T02:01:51;99300.78;;;23.85;54.94
65175;BME280;51761;42.126;24.752;2022-07-06T02:04:17;99337.56;;;24.16;54.70
65175;BME280;51761;42.126;24.752;2022-07-06T02:06:42;99329.78;;;24.00;54.45
65175;BME280;51761;42.126;24.752;2022-07-06T02:09:08;99305.16;;;23.80;54.51
65175;BME280;51761;42.126;24.752;2022-07-06T02:11:33;99321.25;;;23.89;55.08
65175;BME280;51761;42.126;24.752;2022-07-06T02:13:59;99279.78;;;23.60;55.17
65175;BME280;51761;42.126;24.752;2022-07-06T02:16:24;99320.47;;;23.88;55.41
65175;BME280;51761;42.126;24.752;2022-07-06T02:18:50;99308.28;;;23.82;55.27
65175;BME280;51761;42.126;24.752;2022-07-06T02:21:16;99321.78;;;23.87;55.09
65175;BME280;51761;42.126;24.752;2022-07-06T02:23:41;99315.25;;;23.76;55.58
65175;BME280;51761;42.126;24.752;2022-07-06T02:26:07;99270.97;;;23.53;55.63
65175;BME280;51761;42.126;24.752;2022-07-06T02:28:32;99305.41;;;23.77;55.12
65175;BME280;51761;42.126;24.752;2022-07-06T02:30:58;99304.13;;;23.72;55.03
65175;BME280;51761;42.126;24.752;2022-07-06T02:33:24;99330.06;;;23.69;55.47
65175;BME280;51761;42.126;24.752;2022-07-06T02:35:49;99321.25;;;23.72;55.17
65175;BME280;51761;42.126;24.752;2022-07-06T02:38:15;99322.25;;;23.53;55.65
65175;BME280;51761;42.126;24.752;2022-07-06T02:40:40;99336.53;;;23.47;55.98
65175;BME280;51761;42.126;24.752;2022-07-06T02:43:06;99313.72;;;23.14;56.63
65175;BME280;51761;42.126;24.752;2022-07-06T02:45:32;99347.41;;;23.27;56.65
65175;BME280;51761;42.126;24.752;2022-07-06T02:47:57;99349.97;;;23.19;56.99
65175;BME280;51761;42.126;24.752;2022-07-06T02:50:24;99350.72;;;23.20;57.45
65175;BME280;51761;42.126;24.752;2022-07-06T02:52:49;99285.09;;;22.76;57.22
65175;BME280;51761;42.126;24.752;2022-07-06T02:55:15;99348.91;;;23.17;57.33
65175;BME280;51761;42.126;24.752;2022-07-06T02:57:41;99342.66;;;23.02;57.19
65175;BME280;51761;42.126;24.752;2022-07-06T03:00:07;99351.19;;;23.02;57.65
65175;BME280;51761;42.126;24.752;2022-07-06T03:02:33;99362.59;;;23.02;58.29
65175;BME280;51761;42.126;24.752;2022-07-06T03:04:58;99358.72;;;23.05;58.54
65175;BME280;51761;42.126;24.752;2022-07-06T03:07:24;99357.94;;;22.99;58.34
65175;BME280;51761;42.126;24.752;2022-07-06T03:09:49;99360.22;;;22.89;58.80
65175;BME280;51761;42.126;24.752;2022-07-06T03:12:15;99373.72;;;23.00;58.93
65175;BME280;51761;42.126;24.752;2022-07-06T03:14:41;99344.13;;;22.81;58.83
65175;BME280;51761;42.126;24.752;2022-07-06T03:17:07;99355.84;;;22.99;58.87
65175;BME280;51761;42.126;24.752;2022-07-06T03:19:33;99368.34;;;23.13;58.55
65175;BME280;51761;42.126;24.752;2022-07-06T03:21:59;99364.72;;;23.18;57.65
65175;BME280;51761;42.126;24.752;2022-07-06T03:24:24;99368.09;;;23.22;57.62
65175;BME280;51761;42.126;24.752;2022-07-06T03:26:50;99371.72;;;23.22;57.61
65175;BME280;51761;42.126;24.752;2022-07-06T03:29:15;99369.91;;;23.19;57.51
65175;BME280;51761;42.126;24.752;2022-07-06T03:31:41;99373.78;;;23.22;57.83
65175;BME280;51761;42.126;24.752;2022-07-06T03:34:06;99365.25;;;23.16;58.26
65175;BME280;51761;42.126;24.752;2022-07-06T03:36:32;99384.88;;;23.09;58.77
65175;BME280;51761;42.126;24.752;2022-07-06T03:38:57;99358.44;;;22.97;58.29
65175;BME280;51761;42.126;24.752;2022-07-06T03:41:23;99381.59;;;23.32;58.72
65175;BME280;51761;42.126;24.752;2022-07-06T03:43:48;99361.88;;;23.23;59.04
65175;BME280;51761;42.126;24.752;2022-07-06T03:46:14;99381.09;;;23.34;58.45
65175;BME280;51761;42.126;24.752;2022-07-06T03:48:39;99383.16;;;23.28;58.92
65175;BME280;51761;42.126;24.752;2022-07-06T03:51:05;99387.03;;;23.36;58.84
65175;BME280;51761;42.126;24.752;2022-07-06T03:53:31;99382.91;;;23.37;57.65
65175;BME280;51761;42.126;24.752;2022-07-06T03:55:57;99383.41;;;23.41;58.39
65175;BME280;51761;42.126;24.752;2022-07-06T03:58:41;99393.28;;;23.56;58.45
65175;BME280;51761;42.126;24.752;2022-07-06T04:01:07;99383.16;;;23.50;58.09
65175;BME280;51761;42.126;24.752;2022-07-06T04:03:32;99386.56;;;23.59;58.17
65175;BME280;51761;42.126;24.752;2022-07-06T04:05:58;99373.34;;;23.56;58.85
65175;BME280;51761;42.126;24.752;2022-07-06T04:08:23;99375.44;;;23.72;59.33
65175;BME280;51761;42.126;24.752;2022-07-06T04:10:49;99366.34;;;23.68;60.21
65175;BME280;51761;42.126;24.752;2022-07-06T04:13:14;99384.78;;;23.84;61.02
65175;BME280;51761;42.126;24.752;2022-07-06T04:15:40;99382.16;;;23.75;61.28
65175;BME280;51761;42.126;24.752;2022-07-06T04:18:05;99384.28;;;23.91;64.27
65175;BME280;51761;42.126;24.752;2022-07-06T04:20:31;99393.56;;;24.08;64.87
65175;BME280;51761;42.126;24.752;2022-07-06T04:22:57;99387.38;;;24.15;61.80
65175;BME280;51761;42.126;24.752;2022-07-06T04:25:22;99379.81;;;24.28;61.18
65175;BME280;51761;42.126;24.752;2022-07-06T04:27:48;99382.13;;;24.51;60.46
65175;BME280;51761;42.126;24.752;2022-07-06T04:30:13;99376.59;;;24.70;60.43
65175;BME280;51761;42.126;24.752;2022-07-06T04:32:39;99385.06;;;24.97;59.85
65175;BME280;51761;42.126;24.752;2022-07-06T04:35:05;99395.34;;;25.17;59.80
65175;BME280;51761;42.126;24.752;2022-07-06T04:37:31;99384.63;;;25.34;60.36
65175;BME280;51761;42.126;24.752;2022-07-06T04:39:57;99353.47;;;25.30;57.98
65175;BME280;51761;42.126;24.752;2022-07-06T04:42:23;99382.66;;;25.58;57.84
65175;BME280;51761;42.126;24.752;2022-07-06T04:44:48;99393.66;;;25.78;56.91
65175;BME280;51761;42.126;24.752;2022-07-06T04:47:14;99367.75;;;25.71;57.24
65175;BME280;51761;42.126;24.752;2022-07-06T04:49:39;99348.25;;;25.64;56.98
65175;BME280;51761;42.126;24.752;2022-07-06T04:52:05;99384.22;;;25.94;56.55
65175;BME280;51761;42.126;24.752;2022-07-06T04:54:31;99360.16;;;25.73;56.93
65175;BME280;51761;42.126;24.752;2022-07-06T04:56:57;99392.44;;;26.03;57.07
65175;BME280;51761;42.126;24.752;2022-07-06T04:59:22;99392.06;;;26.17;57.16
65175;BME280;51761;42.126;24.752;2022-07-06T05:01:48;99386.75;;;26.27;56.76
65175;BME280;51761;42.126;24.752;2022-07-06T05:04:13;99396.94;;;26.22;55.58
65175;BME280;51761;42.126;24.752;2022-07-06T05:06:40;99398.13;;;26.08;55.90
65175;BME280;51761;42.126;24.752;2022-07-06T05:09:05;99385.84;;;26.13;56.22
65175;BME280;51761;42.126;24.752;2022-07-06T05:11:31;99387.72;;;26.11;55.39
65175;BME280;51761;42.126;24.752;2022-07-06T05:13:57;99379.50;;;25.97;55.99
65175;BME280;51761;42.126;24.752;2022-07-06T05:16:22;99402.81;;;26.06;56.62
65175;BME280;51761;42.126;24.752;2022-07-06T05:18:48;99410.38;;;26.09;56.03
65175;BME280;51761;42.126;24.752;2022-07-06T05:21:13;99368.38;;;25.88;56.80
65175;BME280;51761;42.126;24.752;2022-07-06T05:23:39;99406.72;;;26.08;56.90
65175;BME280;51761;42.126;24.752;2022-07-06T05:26:05;99408.66;;;25.95;56.73
65175;BME280;51761;42.126;24.752;2022-07-06T05:28:30;99403.16;;;25.97;56.19
65175;BME280;51761;42.126;24.752;2022-07-06T05:30:56;99417.69;;;26.04;56.32
65175;BME280;51761;42.126;24.752;2022-07-06T05:33:21;99425.06;;;26.24;56.00
65175;BME280;51761;42.126;24.752;2022-07-06T05:35:47;99415.03;;;26.12;56.24
65175;BME280;51761;42.126;24.752;2022-07-06T05:38:12;99431.28;;;25.98;56.85
65175;BME280;51761;42.126;24.752;2022-07-06T05:40:38;99409.97;;;25.94;56.94
65175;BME280;51761;42.126;24.752;2022-07-06T05:43:03;99437.09;;;26.17;56.74
65175;BME280;51761;42.126;24.752;2022-07-06T05:45:29;99433.41;;;26.22;56.66
65175;BME280;51761;42.126;24.752;2022-07-06T05:47:55;99432.81;;;26.29;56.01
65175;BME280;51761;42.126;24.752;2022-07-06T05:50:39;99397.28;;;26.13;56.33
65175;BME280;51761;42.126;24.752;2022-07-06T05:53:05;99402.66;;;26.22;56.29
65175;BME280;51761;42.126;24.752;2022-07-06T05:55:31;99440.97;;;26.49;56.45
65175;BME280;51761;42.126;24.752;2022-07-06T05:57:57;99436.59;;;26.72;55.81
65175;BME280;51761;42.126;24.752;2022-07-06T06:00:23;99446.41;;;26.76;54.76
65175;BME280;51761;42.126;24.752;2022-07-06T06:02:49;99423.25;;;26.50;55.42
65175;BME280;51761;42.126;24.752;2022-07-06T06:05:16;99443.44;;;26.63;55.50
65175;BME280;51761;42.126;24.752;2022-07-06T06:07:42;99427.00;;;26.64;55.21
65175;BME280;51761;42.126;24.752;2022-07-06T06:10:10;99458.53;;;26.88;55.67
65175;BME280;51761;42.126;24.752;2022-07-06T06:12:36;99434.88;;;26.82;54.92
65175;BME280;51761;42.126;24.752;2022-07-06T06:15:02;99429.34;;;27.13;55.22
65175;BME280;51761;42.126;24.752;2022-07-06T06:17:28;99451.50;;;27.50;54.29
65175;BME280;51761;42.126;24.752;2022-07-06T06:19:53;99446.78;;;27.52;54.66
65175;BME280;51761;42.126;24.752;2022-07-06T06:22:19;99462.69;;;27.35;55.28
65175;BME280;51761;42.126;24.752;2022-07-06T06:24:45;99435.38;;;27.10;54.87
65175;BME280;51761;42.126;24.752;2022-07-06T06:27:11;99426.38;;;27.19;54.54
65175;BME280;51761;42.126;24.752;2022-07-06T06:29:36;99457.72;;;27.54;53.60
65175;BME280;51761;42.126;24.752;2022-07-06T06:32:02;99453.38;;;27.47;53.85
65175;BME280;51761;42.126;24.752;2022-07-06T06:34:27;99449.50;;;27.45;53.46
65175;BME280;51761;42.126;24.752;2022-07-06T06:36:53;99454.47;;;27.63;53.54
65175;BME280;51761;42.126;24.752;2022-07-06T06:39:18;99459.91;;;27.84;53.47
65175;BME280;51761;42.126;24.752;2022-07-06T06:41:44;99454.63;;;27.88;51.79
65175;BME280;51761;42.126;24.752;2022-07-06T06:44:09;99466.59;;;28.05;52.09
65175;BME280;51761;42.126;24.752;2022-07-06T06:46:35;99452.38;;;28.00;51.70
65175;BME280;51761;42.126;24.752;2022-07-06T06:49:00;99461.56;;;28.11;50.99
65175;BME280;51761;42.126;24.752;2022-07-06T06:51:26;99454.53;;;28.25;51.69
65175;BME280;51761;42.126;24.752;2022-07-06T06:53:51;99427.44;;;28.08;50.58
65175;BME280;51761;42.126;24.752;2022-07-06T06:56:17;99428.59;;;27.99;50.76
65175;BME280;51761;42.126;24.752;2022-07-06T06:58:43;99459.53;;;28.25;50.22
65175;BME280;51761;42.126;24.752;2022-07-06T07:01:09;99450.19;;;28.19;50.62
65175;BME280;51761;42.126;24.752;2022-07-06T07:03:35;99451.00;;;28.19;51.02
65175;BME280;51761;42.126;24.752;2022-07-06T07:06:00;99460.63;;;28.22;51.67
65175;BME280;51761;42.126;24.752;2022-07-06T07:08:26;99451.59;;;28.31;50.63
65175;BME280;51761;42.126;24.752;2022-07-06T07:10:52;99447.56;;;28.52;49.86
65175;BME280;51761;42.126;24.752;2022-07-06T07:13:17;99432.41;;;28.39;50.43
65175;BME280;51761;42.126;24.752;2022-07-06T07:15:43;99440.06;;;28.62;50.42
65175;BME280;51761;42.126;24.752;2022-07-06T07:18:08;99443.19;;;28.90;49.41
65175;BME280;51761;42.126;24.752;2022-07-06T07:20:34;99410.25;;;28.91;49.07
65175;BME280;51761;42.126;24.752;2022-07-06T07:23:00;99440.53;;;29.31;49.03
65175;BME280;51761;42.126;24.752;2022-07-06T07:25:26;99444.94;;;29.45;48.47
65175;BME280;51761;42.126;24.752;2022-07-06T07:27:53;99432.56;;;29.50;47.41
65175;BME280;51761;42.126;24.752;2022-07-06T07:30:19;99409.69;;;29.65;45.96
65175;BME280;51761;42.126;24.752;2022-07-06T07:32:44;99435.94;;;29.61;46.22
65175;BME280;51761;42.126;24.752;2022-07-06T07:35:10;99443.91;;;30.02;46.66
65175;BME280;51761;42.126;24.752;2022-07-06T07:37:36;99424.41;;;30.08;44.96
65175;BME280;51761;42.126;24.752;2022-07-06T07:40:02;99431.75;;;30.16;45.29
65175;BME280;51761;42.126;24.752;2022-07-06T07:42:28;99397.88;;;29.55;45.67
65175;BME280;51761;42.126;24.752;2022-07-06T07:44:53;99446.50;;;29.46;47.19
65175;BME280;51761;42.126;24.752;2022-07-06T07:47:19;99422.97;;;28.96;47.78
65175;BME280;51761;42.126;24.752;2022-07-06T07:49:44;99445.03;;;28.75;48.46
65175;BME280;51761;42.126;24.752;2022-07-06T07:52:10;99442.78;;;28.42;48.77
65175;BME280;51761;42.126;24.752;2022-07-06T07:54:36;99449.00;;;28.14;49.73
65175;BME280;51761;42.126;24.752;2022-07-06T07:57:01;99442.47;;;28.14;49.81
65175;BME280;51761;42.126;24.752;2022-07-06T07:59:27;99445.19;;;28.06;50.35
65175;BME280;51761;42.126;24.752;2022-07-06T08:01:53;99421.72;;;27.89;51.18
65175;BME280;51761;42.126;24.752;2022-07-06T08:04:21;99452.53;;;28.20;50.40
65175;BME280;51761;42.126;24.752;2022-07-06T08:06:47;99422.22;;;28.06;50.17
65175;BME280;51761;42.126;24.752;2022-07-06T08:09:13;99432.13;;;28.24;49.88
65175;BME280;51761;42.126;24.752;2022-07-06T08:11:39;99441.91;;;28.34;50.20
65175;BME280;51761;42.126;24.752;2022-07-06T08:14:05;99408.13;;;28.53;49.41
65175;BME280;51761;42.126;24.752;2022-07-06T08:16:31;99419.38;;;28.77;48.83
65175;BME280;51761;42.126;24.752;2022-07-06T08:18:57;99434.56;;;28.90;48.75
65175;BME280;51761;42.126;24.752;2022-07-06T08:21:22;99438.31;;;28.85;49.03
65175;BME280;51761;42.126;24.752;2022-07-06T08:23:48;99425.72;;;28.88;49.27
65175;BME280;51761;42.126;24.752;2022-07-06T08:26:14;99427.91;;;28.82;48.38
65175;BME280;51761;42.126;24.752;2022-07-06T08:28:39;99428.69;;;28.83;48.74
65175;BME280;51761;42.126;24.752;2022-07-06T08:31:05;99431.47;;;28.88;49.32
65175;BME280;51761;42.126;24.752;2022-07-06T08:33:30;99424.16;;;28.74;50.11
65175;BME280;51761;42.126;24.752;2022-07-06T08:35:56;99429.25;;;28.81;48.72
65175;BME280;51761;42.126;24.752;2022-07-06T08:38:22;99419.06;;;28.80;48.62
65175;BME280;51761;42.126;24.752;2022-07-06T08:40:49;99416.00;;;28.91;48.73
65175;BME280;51761;42.126;24.752;2022-07-06T08:43:15;99426.75;;;29.63;46.46
65175;BME280;51761;42.126;24.752;2022-07-06T08:45:41;99401.81;;;30.40;46.50
65175;BME280;51761;42.126;24.752;2022-07-06T08:48:11;99426.41;;;30.61;44.53
65175;BME280;51761;42.126;24.752;2022-07-06T08:50:37;99416.97;;;31.16;43.27
65175;BME280;51761;42.126;24.752;2022-07-06T08:53:04;99427.09;;;30.75;43.94
65175;BME280;51761;42.126;24.752;2022-07-06T08:55:30;99421.34;;;30.34;45.02
65175;BME280;51761;42.126;24.752;2022-07-06T08:57:57;99406.53;;;29.76;45.65
65175;BME280;51761;42.126;24.752;2022-07-06T09:00:24;99430.03;;;29.80;47.03
65175;BME280;51761;42.126;24.752;2022-07-06T09:02:52;99424.34;;;29.41;47.15
65175;BME280;51761;42.126;24.752;2022-07-06T09:05:22;99424.34;;;29.41;48.49
65175;BME280;51761;42.126;24.752;2022-07-06T09:07:50;99427.47;;;29.17;49.81
65175;BME280;51761;42.126;24.752;2022-07-06T09:10:21;99435.69;;;29.00;49.73
65175;BME280;51761;42.126;24.752;2022-07-06T09:12:50;99391.22;;;28.88;49.15
65175;BME280;51761;42.126;24.752;2022-07-06T09:15:16;99402.09;;;28.95;48.97
65175;BME280;51761;42.126;24.752;2022-07-06T09:17:42;99432.56;;;28.85;49.83
65175;BME280;51761;42.126;24.752;2022-07-06T09:20:35;99441.41;;;28.87;50.71
65175;BME280;51761;42.126;24.752;2022-07-06T09:23:03;99432.78;;;28.87;49.79
65175;BME280;51761;42.126;24.752;2022-07-06T09:25:30;99410.44;;;28.54;50.79
65175;BME280;51761;42.126;24.752;2022-07-06T09:27:58;99435.31;;;28.78;50.67
65175;BME280;51761;42.126;24.752;2022-07-06T09:30:25;99442.59;;;28.66;51.34
65175;BME280;51761;42.126;24.752;2022-07-06T09:32:56;99421.56;;;28.45;50.49
65175;BME280;51761;42.126;24.752;2022-07-06T09:35:36;99376.59;;;28.34;50.66
65175;BME280;51761;42.126;24.752;2022-07-06T09:40:28;99429.03;;;28.79;50.35
65175;BME280;51761;42.126;24.752;2022-07-06T09:43:19;99421.47;;;28.63;50.96
65175;BME280;51761;42.126;24.752;2022-07-06T09:46:05;99403.56;;;28.57;50.54
65175;BME280;51761;42.126;24.752;2022-07-06T09:48:30;99419.72;;;28.86;50.68
65175;BME280;51761;42.126;24.752;2022-07-06T09:50:57;99429.03;;;28.66;51.33
65175;BME280;51761;42.126;24.752;2022-07-06T09:53:25;99392.09;;;28.44;51.66
65175;BME280;51761;42.126;24.752;2022-07-06T09:55:53;99415.97;;;28.78;50.82
65175;BME280;51761;42.126;24.752;2022-07-06T09:58:20;99393.84;;;28.86;49.93
65175;BME280;51761;42.126;24.752;2022-07-06T10:00:47;99403.81;;;29.11;49.30
65175;BME280;51761;42.126;24.752;2022-07-06T10:03:13;99376.59;;;28.86;50.83
65175;BME280;51761;42.126;24.752;2022-07-06T10:05:43;99384.69;;;29.14;49.83
65175;BME280;51761;42.126;24.752;2022-07-06T10:08:12;99402.44;;;29.38;49.54
65175;BME280;51761;42.126;24.752;2022-07-06T10:10:40;99413.84;;;29.43;48.84
65175;BME280;51761;42.126;24.752;2022-07-06T10:13:06;99398.13;;;29.44;49.40
65175;BME280;51761;42.126;24.752;2022-07-06T10:15:33;99395.63;;;29.28;49.48
65175;BME280;51761;42.126;24.752;2022-07-06T10:18:01;99399.56;;;29.51;48.95
65175;BME280;51761;42.126;24.752;2022-07-06T10:20:32;99394.47;;;29.57;48.15
65175;BME280;51761;42.126;24.752;2022-07-06T10:23:02;99397.84;;;29.68;46.88
65175;BME280;51761;42.126;24.752;2022-07-06T10:25:28;99353.97;;;29.75;46.74
65175;BME280;51761;42.126;24.752;2022-07-06T10:27:55;99389.25;;;30.09;45.70
65175;BME280;51761;42.126;24.752;2022-07-06T10:30:21;99391.47;;;29.83;46.93
65175;BME280;51761;42.126;24.752;2022-07-06T10:32:49;99386.94;;;30.08;46.85
65175;BME280;51761;42.126;24.752;2022-07-06T10:35:18;99384.56;;;30.47;45.38
65175;BME280;51761;42.126;24.752;2022-07-06T10:37:45;99380.34;;;30.69;45.14
65175;BME280;51761;42.126;24.752;2022-07-06T10:40:13;99376.94;;;31.48;45.07
65175;BME280;51761;42.126;24.752;2022-07-06T10:42:59;99372.03;;;32.01;41.88
65175;BME280;51761;42.126;24.752;2022-07-06T10:50:45;99359.75;;;32.68;38.64
65175;BME280;51761;42.126;24.752;2022-07-06T10:53:21;99358.94;;;32.90;39.79
65175;BME280;51761;42.126;24.752;2022-07-06T10:55:49;99366.03;;;32.89;38.42
65175;BME280;51761;42.126;24.752;2022-07-06T10:58:38;99314.84;;;32.67;38.77
65175;BME280;51761;42.126;24.752;2022-07-06T11:01:11;99367.25;;;32.56;39.08
65175;BME280;51761;42.126;24.752;2022-07-06T11:04:03;99361.31;;;32.39;40.94
65175;BME280;51761;42.126;24.752;2022-07-06T11:06:38;99329.28;;;32.52;40.35
65175;BME280;51761;42.126;24.752;2022-07-06T11:09:05;99368.22;;;32.66;38.42
65175;BME280;51761;42.126;24.752;2022-07-06T11:14:20;99359.34;;;31.97;41.45
65175;BME280;51761;42.126;24.752;2022-07-06T11:19:14;99358.03;;;32.20;39.74
65175;BME280;51761;42.126;24.752;2022-07-06T11:24:29;99342.38;;;31.93;40.90
65175;BME280;51761;42.126;24.752;2022-07-06T11:26:56;99344.50;;;32.00;42.20
65175;BME280;51761;42.126;24.752;2022-07-06T11:29:24;99333.63;;;31.56;41.11
65175;BME280;51761;42.126;24.752;2022-07-06T11:31:52;99337.81;;;31.32;41.17
65175;BME280;51761;42.126;24.752;2022-07-06T11:34:25;99345.75;;;31.54;41.00
65175;BME280;51761;42.126;24.752;2022-07-06T11:36:59;99330.81;;;31.71;40.17
65175;BME280;51761;42.126;24.752;2022-07-06T11:39:29;99331.81;;;32.18;40.14
65175;BME280;51761;42.126;24.752;2022-07-06T11:41:56;99326.53;;;32.84;39.47
65175;BME280;51761;42.126;24.752;2022-07-06T11:44:22;99304.47;;;33.03;37.13
65175;BME280;51761;42.126;24.752;2022-07-06T11:46:47;99305.06;;;33.02;38.18
65175;BME280;51761;42.126;24.752;2022-07-06T11:49:13;99318.75;;;33.01;35.97
65175;BME280;51761;42.126;24.752;2022-07-06T11:51:40;99320.69;;;33.06;36.54
65175;BME280;51761;42.126;24.752;2022-07-06T11:54:14;99325.47;;;33.19;36.65
65175;BME280;51761;42.126;24.752;2022-07-06T11:59:16;99314.63;;;33.91;35.48
65175;BME280;51761;42.126;24.752;2022-07-06T12:01:42;99311.66;;;34.23;35.29
65175;BME280;51761;42.126;24.752;2022-07-06T12:04:10;99291.84;;;34.12;34.91
65175;BME280;51761;42.126;24.752;2022-07-06T12:06:36;99288.69;;;34.42;34.08
65175;BME280;51761;42.126;24.752;2022-07-06T12:09:02;99303.72;;;34.81;33.86
65175;BME280;51761;42.126;24.752;2022-07-06T12:11:35;99307.25;;;34.80;33.98
65175;BME280;51761;42.126;24.752;2022-07-06T12:14:21;99297.59;;;33.63;34.49
65175;BME280;51761;42.126;24.752;2022-07-06T12:16:48;99291.97;;;32.93;36.37
65175;BME280;51761;42.126;24.752;2022-07-06T12:19:15;99302.88;;;32.48;37.47
65175;BME280;51761;42.126;24.752;2022-07-06T12:24:09;99300.22;;;32.20;40.30
65175;BME280;51761;42.126;24.752;2022-07-06T12:26:41;99298.66;;;31.74;39.26
65175;BME280;51761;42.126;24.752;2022-07-06T12:29:08;99300.41;;;31.77;40.56
65175;BME280;51761;42.126;24.752;2022-07-06T12:31:47;99273.22;;;31.65;38.79
65175;BME280;51761;42.126;24.752;2022-07-06T12:34:25;99297.13;;;32.11;37.97
65175;BME280;51761;42.126;24.752;2022-07-06T12:36:51;99285.09;;;32.82;36.64
65175;BME280;51761;42.126;24.752;2022-07-06T12:39:19;99289.63;;;32.99;36.49
65175;BME280;51761;42.126;24.752;2022-07-06T12:41:46;99256.50;;;32.93;36.97
65175;BME280;51761;42.126;24.752;2022-07-06T12:44:12;99280.75;;;32.97;36.91
65175;BME280;51761;42.126;24.752;2022-07-06T12:46:41;99275.25;;;32.77;36.67
65175;BME280;51761;42.126;24.752;2022-07-06T12:49:15;99218.84;;;32.46;37.13
65175;BME280;51761;42.126;24.752;2022-07-06T12:54:16;99278.47;;;32.96;36.68
65175;BME280;51761;42.126;24.752;2022-07-06T12:57:04;99265.91;;;33.01;35.93
65175;BME280;51761;42.126;24.752;2022-07-06T12:59:36;99268.56;;;33.46;36.35
65175;BME280;51761;42.126;24.752;2022-07-06T13:02:06;99258.06;;;33.58;35.71
65175;BME280;51761;42.126;24.752;2022-07-06T13:04:33;99260.22;;;33.82;36.30
65175;BME280;51761;42.126;24.752;2022-07-06T13:07:00;99259.75;;;33.93;36.01
65175;BME280;51761;42.126;24.752;2022-07-06T13:09:27;99259.31;;;33.72;35.44
65175;BME280;51761;42.126;24.752;2022-07-06T13:11:53;99247.38;;;33.68;34.64
65175;BME280;51761;42.126;24.752;2022-07-06T13:14:19;99232.94;;;33.60;33.88